createdAt,value
2022-11-20T00:01:20.825Z,6.35
2022-11-20T00:03:47.328Z,6.21
2022-11-20T00:06:16.892Z,6.11
2022-11-20T00:08:43.759Z,6.21
2022-11-20T00:11:15.749Z,6.32
2022-11-20T00:13:46.905Z,6.26
2022-11-20T00:16:17.323Z,6.33
2022-11-20T00:18:44.844Z,6.16
2022-11-20T00:21:13.948Z,5.98
2022-11-20T00:23:40.488Z,5.94
2022-11-20T00:26:09.976Z,5.92
2022-11-20T00:28:36.850Z,5.92
2022-11-20T00:31:08.609Z,5.99
2022-11-20T00:33:35.702Z,5.99
2022-11-20T00:36:03.261Z,5.96
2022-11-20T00:38:30.584Z,5.98
2022-11-20T00:40:58.639Z,6.03
2022-11-20T00:43:25.821Z,6.06
2022-11-20T00:45:57.794Z,6.02
2022-11-20T00:48:24.289Z,6.07
2022-11-20T00:50:50.692Z,6.04
2022-11-20T00:53:17.237Z,5.99
2022-11-20T00:55:43.636Z,5.97
2022-11-20T00:58:14.122Z,5.99
2022-11-20T01:00:40.988Z,5.95
2022-11-20T01:03:07.428Z,5.88
2022-11-20T01:05:36.376Z,5.88
2022-11-20T01:08:02.826Z,5.94
2022-11-20T01:10:29.837Z,5.95
2022-11-20T01:13:14.980Z,5.98
2022-11-20T01:15:41.474Z,5.85
2022-11-20T01:18:07.882Z,5.77
2022-11-20T01:20:37.649Z,5.81
2022-11-20T01:23:04.799Z,5.84
2022-11-20T01:25:31.232Z,5.85
2022-11-20T01:27:57.648Z,5.80
2022-11-20T01:30:24.076Z,5.72
2022-11-20T01:32:50.475Z,5.60
2022-11-20T01:35:16.889Z,5.57
2022-11-20T01:37:43.771Z,5.55
2022-11-20T01:40:10.845Z,5.47
2022-11-20T01:42:56.146Z,5.40
2022-11-20T01:46:01.468Z,5.37
2022-11-20T01:48:34.699Z,5.44
2022-11-20T01:51:02.058Z,5.35
2022-11-20T01:53:33.174Z,5.12
2022-11-20T01:56:02.591Z,4.97
2022-11-20T01:58:33.559Z,4.81
2022-11-20T02:01:00.567Z,4.69
2022-11-20T02:03:27.517Z,4.56
2022-11-20T02:06:15.425Z,4.50
2022-11-20T02:08:41.883Z,4.32
2022-11-20T02:11:08.497Z,4.15
2022-11-20T02:13:44.387Z,4.16
2022-11-20T02:16:16.188Z,4.29
2022-11-20T02:18:44.410Z,4.30
2022-11-20T02:22:08.092Z,4.32
2022-11-20T02:24:34.890Z,4.38
2022-11-20T02:27:13.494Z,4.29
2022-11-20T02:29:53.448Z,4.19
2022-11-20T02:32:19.936Z,4.30
2022-11-20T02:34:46.364Z,4.10
2022-11-20T02:37:13.243Z,4.00
2022-11-20T02:39:41.161Z,3.91
2022-11-20T02:42:07.660Z,4.01
2022-11-20T02:44:34.111Z,4.04
2022-11-20T02:47:00.746Z,4.15
2022-11-20T02:49:27.246Z,4.19
2022-11-20T02:51:53.736Z,4.07
2022-11-20T02:54:20.146Z,4.08
2022-11-20T02:56:46.590Z,3.94
2022-11-20T02:59:13.196Z,3.97
2022-11-20T03:01:39.898Z,3.97
2022-11-20T03:04:06.365Z,3.81
2022-11-20T03:06:32.944Z,3.72
2022-11-20T03:08:59.347Z,3.62
2022-11-20T03:11:25.847Z,3.62
2022-11-20T03:13:52.369Z,3.71
2022-11-20T03:16:21.824Z,3.75
2022-11-20T03:18:48.545Z,3.75
2022-11-20T03:21:16.584Z,3.90
2022-11-20T03:23:43.712Z,3.97
2022-11-20T03:26:16.344Z,3.97
2022-11-20T03:28:48.831Z,4.00
2022-11-20T03:31:17.054Z,4.01
2022-11-20T03:33:44.052Z,3.89
2022-11-20T03:36:13.785Z,3.69
2022-11-20T03:38:40.812Z,3.52
2022-11-20T03:41:11.022Z,3.50
2022-11-20T03:43:37.821Z,3.56
2022-11-20T03:46:05.107Z,3.60
2022-11-20T03:48:31.987Z,3.56
2022-11-20T03:51:12.963Z,3.46
2022-11-20T03:53:43.973Z,3.49
2022-11-20T03:56:11.429Z,3.47
2022-11-20T03:58:42.177Z,3.55
2022-11-20T04:01:10.634Z,3.60
2022-11-20T04:03:38.583Z,3.64
2022-11-20T04:06:09.830Z,3.73
2022-11-20T04:08:36.604Z,3.71
2022-11-20T04:11:28.397Z,3.74
2022-11-20T04:13:55.987Z,3.73
2022-11-20T04:16:24.064Z,3.77
2022-11-20T04:18:58.392Z,3.79
2022-11-20T04:21:25.966Z,3.74
2022-11-20T04:23:56.521Z,3.83
2022-11-20T04:26:25.450Z,3.82
2022-11-20T04:28:52.261Z,3.88
2022-11-20T04:31:21.336Z,3.85
2022-11-20T04:33:48.167Z,3.83
2022-11-20T04:36:20.837Z,3.67
2022-11-20T04:38:56.307Z,3.63
2022-11-20T04:41:26.420Z,3.54
2022-11-20T04:43:59.930Z,3.55
2022-11-20T04:46:28.580Z,3.53
2022-11-20T04:48:55.311Z,3.51
2022-11-20T04:51:21.886Z,3.62
2022-11-20T04:53:49.320Z,3.73
2022-11-20T04:56:16.649Z,3.73
2022-11-20T04:58:43.979Z,3.78
2022-11-20T05:01:16.256Z,3.82
2022-11-20T05:03:43.764Z,3.72
2022-11-20T05:06:12.953Z,3.76
2022-11-20T05:08:39.442Z,3.69
2022-11-20T05:11:08.876Z,3.77
2022-11-20T05:13:36.141Z,3.90
2022-11-20T05:16:07.412Z,3.89
2022-11-20T05:18:35.445Z,3.80
2022-11-20T05:21:01.937Z,3.68
2022-11-20T05:23:30.192Z,3.73
2022-11-20T05:25:59.424Z,3.63
2022-11-20T05:28:27.382Z,3.70
2022-11-20T05:30:53.784Z,3.81
2022-11-20T05:33:20.393Z,3.81
2022-11-20T05:35:46.872Z,3.81
2022-11-20T05:38:13.404Z,3.86
2022-11-20T05:40:39.855Z,3.89
2022-11-20T05:43:06.401Z,3.91
2022-11-20T05:45:32.905Z,3.90
2022-11-20T05:48:02.320Z,3.81
2022-11-20T05:50:29.191Z,3.73
2022-11-20T05:52:55.955Z,3.76
2022-11-20T05:55:22.456Z,3.72
2022-11-20T05:57:48.891Z,3.67
2022-11-20T06:00:15.949Z,3.69
2022-11-20T06:02:42.473Z,3.49
2022-11-20T06:05:09.148Z,3.15
2022-11-20T06:07:35.634Z,3.11
2022-11-20T06:10:02.090Z,3.24
2022-11-20T06:12:28.590Z,3.31
2022-11-20T06:14:55.001Z,3.35
2022-11-20T06:17:21.421Z,3.37
2022-11-20T06:19:47.831Z,3.31
2022-11-20T06:22:14.342Z,3.24
2022-11-20T06:24:40.769Z,3.07
2022-11-20T06:27:07.216Z,2.93
2022-11-20T06:29:34.181Z,2.93
2022-11-20T06:32:00.842Z,3.03
2022-11-20T06:34:27.301Z,3.15
2022-11-20T06:36:53.724Z,3.03
2022-11-20T06:39:20.736Z,2.81
2022-11-20T06:41:47.437Z,3.00
2022-11-20T06:44:13.872Z,3.18
2022-11-20T06:46:40.288Z,3.09
2022-11-20T06:49:06.928Z,3.10
2022-11-20T06:51:33.476Z,3.10
2022-11-20T06:54:01.806Z,2.95
2022-11-20T06:56:28.869Z,2.97
2022-11-20T06:58:55.307Z,3.09
2022-11-20T07:01:21.832Z,3.16
2022-11-20T07:03:54.383Z,3.17
2022-11-20T07:06:21.293Z,3.17
2022-11-20T07:08:48.021Z,3.24
2022-11-20T07:11:14.447Z,3.31
2022-11-20T07:13:41.085Z,3.39
2022-11-20T07:16:08.915Z,3.29
2022-11-20T07:18:35.949Z,3.05
2022-11-20T07:21:05.161Z,3.18
2022-11-20T07:23:31.885Z,3.28
2022-11-20T07:25:58.346Z,3.31
2022-11-20T07:28:24.840Z,3.43
2022-11-20T07:30:52.503Z,3.40
2022-11-20T07:33:19.082Z,3.38
2022-11-20T07:35:46.033Z,3.25
2022-11-20T07:38:12.541Z,3.39
2022-11-20T07:40:38.996Z,3.47
2022-11-20T07:43:05.431Z,3.44
2022-11-20T07:45:31.925Z,3.38
2022-11-20T07:47:58.349Z,3.52
2022-11-20T07:50:24.802Z,3.43
2022-11-20T07:52:51.540Z,3.61
2022-11-20T07:55:18.110Z,3.69
2022-11-20T07:57:44.584Z,3.77
2022-11-20T08:00:12.306Z,3.88
2022-11-20T08:02:42.554Z,3.81
2022-11-20T08:05:10.511Z,3.79
2022-11-20T08:07:38.828Z,3.80
2022-11-20T08:10:05.882Z,3.94
2022-11-20T08:12:50.603Z,4.08
2022-11-20T08:15:17.266Z,4.11
2022-11-20T08:17:56.776Z,4.05
2022-11-20T08:20:30.508Z,4.10
2022-11-20T08:23:02.224Z,4.13
2022-11-20T08:25:30.419Z,4.17
2022-11-20T08:28:10.325Z,4.18
2022-11-20T08:30:45.190Z,4.11
2022-11-20T08:33:11.650Z,4.07
2022-11-20T08:35:38.897Z,4.12
2022-11-20T08:38:06.559Z,4.17
2022-11-20T08:40:33.916Z,4.30
2022-11-20T08:43:00.453Z,4.38
2022-11-20T08:45:31.033Z,4.45
2022-11-20T08:48:04.482Z,4.43
2022-11-20T08:50:33.027Z,4.50
2022-11-20T08:53:04.556Z,4.41
2022-11-20T08:55:30.972Z,4.51
2022-11-20T08:57:57.389Z,4.60
2022-11-20T09:00:23.922Z,4.72
2022-11-20T09:02:50.342Z,4.85
2022-11-20T09:05:16.742Z,4.85
2022-11-20T09:07:43.289Z,4.74
2022-11-20T09:10:23.771Z,4.76
2022-11-20T09:12:52.563Z,4.83
2022-11-20T09:15:19.670Z,4.90
2022-11-20T09:17:59.865Z,4.97
2022-11-20T09:20:27.670Z,5.01
2022-11-20T09:22:54.175Z,4.84
2022-11-20T09:25:20.671Z,4.79
2022-11-20T09:27:47.405Z,4.89
2022-11-20T09:30:17.186Z,4.98
2022-11-20T09:32:43.876Z,5.22
2022-11-20T09:35:11.321Z,5.21
2022-11-20T09:37:37.793Z,5.30
2022-11-20T09:40:04.710Z,5.23
2022-11-20T09:42:43.045Z,5.32
2022-11-20T09:45:40.832Z,5.43
2022-11-20T09:48:16.280Z,5.48
2022-11-20T09:51:11.078Z,5.43
2022-11-20T09:53:49.990Z,5.51
2022-11-20T09:56:22.594Z,5.60
2022-11-20T09:58:52.696Z,5.66
2022-11-20T10:01:22.070Z,5.73
2022-11-20T10:03:57.548Z,5.90
2022-11-20T10:06:33.753Z,5.88
2022-11-20T10:09:23.985Z,5.87
2022-11-20T10:12:10.612Z,5.82
2022-11-20T10:14:46.079Z,5.80
2022-11-20T10:17:42.017Z,5.99
2022-11-20T10:20:20.663Z,6.25
2022-11-20T10:23:25.784Z,6.22
2022-11-20T10:26:03.065Z,6.46
2022-11-20T10:28:59.871Z,6.43
2022-11-20T10:31:46.899Z,6.62
2022-11-20T10:34:27.853Z,6.76
2022-11-20T10:37:04.675Z,6.91
2022-11-20T10:39:38.847Z,6.96
2022-11-20T10:42:12.015Z,7.11
2022-11-20T10:45:05.823Z,7.41
2022-11-20T10:47:33.751Z,7.61
2022-11-20T10:50:05.348Z,7.69
2022-11-20T10:53:02.817Z,7.80
2022-11-20T10:55:45.981Z,7.94
2022-11-20T10:58:27.521Z,8.09
2022-11-20T11:01:03.752Z,8.15
2022-11-20T11:03:32.303Z,8.22
2022-11-20T11:06:11.475Z,8.17
2022-11-20T11:08:40.180Z,8.25
2022-11-20T11:11:28.391Z,8.42
2022-11-20T11:14:09.329Z,8.47
2022-11-20T11:16:36.706Z,8.56
2022-11-20T11:19:15.753Z,8.49
2022-11-20T11:22:11.863Z,8.58
2022-11-20T11:24:43.104Z,8.76
2022-11-20T11:27:17.247Z,8.84
2022-11-20T11:29:44.585Z,8.84
2022-11-20T11:32:22.708Z,8.97
2022-11-20T11:35:04.145Z,9.04
2022-11-20T11:37:36.523Z,9.20
2022-11-20T11:40:23.322Z,9.34
2022-11-20T11:43:26.754Z,9.38
2022-11-20T11:45:55.720Z,9.31
2022-11-20T11:48:23.105Z,9.45
2022-11-20T11:50:51.603Z,9.49
2022-11-20T11:53:20.773Z,9.51
2022-11-20T11:56:04.954Z,9.58
2022-11-20T11:58:51.269Z,9.67
2022-11-20T12:01:45.640Z,9.68
2022-11-20T12:04:56.045Z,9.77
2022-11-20T12:07:47.697Z,9.78
2022-11-20T12:10:36.665Z,9.80
2022-11-20T12:13:11.481Z,9.89
2022-11-20T12:15:44.336Z,9.93
2022-11-20T12:18:19.244Z,9.97
2022-11-20T12:21:20.163Z,9.94
2022-11-20T12:23:49.464Z,9.99
2022-11-20T12:26:32.630Z,10.05
2022-11-20T12:29:19.944Z,10.00
2022-11-20T12:32:02.889Z,10.08
2022-11-20T12:34:52.447Z,10.09
2022-11-20T12:37:32.285Z,10.09
2022-11-20T12:40:10.320Z,10.12
2022-11-20T12:43:12.286Z,10.09
2022-11-20T12:45:59.236Z,10.08
2022-11-20T12:48:46.464Z,10.07
2022-11-20T12:51:30.000Z,10.06
2022-11-20T12:54:12.071Z,10.05
2022-11-20T12:56:48.123Z,10.15
2022-11-20T12:59:45.669Z,10.19
2022-11-20T13:02:15.052Z,10.21
2022-11-20T13:05:14.917Z,10.22
2022-11-20T13:07:42.837Z,10.26
2022-11-20T13:10:27.389Z,10.61
2022-11-20T13:13:12.615Z,11.84
2022-11-20T13:15:54.192Z,12.33
2022-11-20T13:18:21.192Z,12.69
2022-11-20T13:20:49.085Z,12.65
2022-11-20T13:23:29.135Z,12.24
2022-11-20T13:26:07.864Z,12.20
2022-11-20T13:28:34.531Z,11.93
2022-11-20T13:31:01.184Z,11.67
2022-11-20T13:33:37.630Z,11.64
2022-11-20T13:36:20.584Z,11.46
2022-11-20T13:38:55.721Z,11.27
2022-11-20T13:41:36.344Z,11.25
2022-11-20T13:44:13.820Z,11.25
2022-11-20T13:46:46.321Z,11.60
2022-11-20T13:49:21.721Z,11.69
2022-11-20T13:51:51.744Z,11.61
2022-11-20T13:54:26.137Z,11.72
2022-11-20T13:57:07.620Z,11.71
2022-11-20T13:59:52.784Z,11.74
2022-11-20T14:02:22.229Z,12.13
2022-11-20T14:04:54.611Z,12.16
2022-11-20T14:07:25.467Z,12.19
2022-11-20T14:09:57.209Z,12.34
2022-11-20T14:12:30.001Z,12.37
2022-11-20T14:14:57.021Z,12.14
2022-11-20T14:17:32.786Z,12.17
2022-11-20T14:20:08.378Z,12.05
2022-11-20T14:22:34.866Z,11.76
2022-11-20T14:25:24.202Z,11.26
2022-11-20T14:27:59.627Z,10.96
2022-11-20T14:30:43.907Z,10.86
2022-11-20T14:33:13.278Z,10.76
2022-11-20T14:35:48.936Z,10.71
2022-11-20T14:38:19.515Z,10.67
2022-11-20T14:40:46.065Z,10.63
2022-11-20T14:43:23.179Z,10.58
2022-11-20T14:46:10.830Z,10.53
2022-11-20T14:48:44.351Z,10.49
2022-11-20T14:51:32.340Z,10.44
2022-11-20T14:54:18.865Z,10.42
2022-11-20T14:57:04.784Z,10.41
2022-11-20T14:59:35.774Z,10.37
2022-11-20T15:02:04.552Z,10.35
2022-11-20T15:04:31.189Z,10.29
2022-11-20T15:07:00.041Z,10.27
2022-11-20T15:09:26.823Z,10.23
2022-11-20T15:12:04.362Z,10.19
2022-11-20T15:14:33.667Z,10.15
2022-11-20T15:17:00.560Z,10.08
2022-11-20T15:19:28.044Z,10.04
2022-11-20T15:21:54.646Z,9.99
2022-11-20T15:24:21.742Z,9.94
2022-11-20T15:26:48.837Z,9.89
2022-11-20T15:29:19.828Z,9.80
2022-11-20T15:31:46.584Z,9.74
2022-11-20T15:34:17.038Z,9.73
2022-11-20T15:36:44.857Z,9.68
2022-11-20T15:39:12.567Z,9.64
2022-11-20T15:41:39.842Z,9.59
2022-11-20T15:44:06.718Z,9.57
2022-11-20T15:46:39.522Z,9.51
2022-11-20T15:49:07.258Z,9.39
2022-11-20T15:51:35.061Z,9.33
2022-11-20T15:54:09.855Z,9.26
2022-11-20T15:56:36.477Z,9.20
2022-11-20T15:59:02.992Z,9.10
2022-11-20T16:01:29.594Z,8.98
2022-11-20T16:03:56.034Z,8.90
2022-11-20T16:06:22.596Z,8.86
2022-11-20T16:08:49.068Z,8.88
2022-11-20T16:11:17.994Z,8.87
2022-11-20T16:14:03.306Z,8.79
2022-11-20T16:16:33.687Z,8.76
2022-11-20T16:19:00.970Z,8.68
2022-11-20T16:21:31.862Z,8.59
2022-11-20T16:24:05.869Z,8.51
2022-11-20T16:26:33.064Z,8.42
2022-11-20T16:29:00.699Z,8.38
2022-11-20T16:31:27.607Z,8.35
2022-11-20T16:33:56.330Z,8.32
2022-11-20T16:36:25.485Z,8.27
2022-11-20T16:38:56.807Z,8.16
2022-11-20T16:41:26.541Z,8.01
2022-11-20T16:43:58.909Z,7.89
2022-11-20T16:46:31.890Z,7.85
2022-11-20T16:49:00.711Z,7.84
2022-11-20T16:51:29.083Z,7.86
2022-11-20T16:53:58.744Z,7.85
2022-11-20T16:56:27.138Z,7.90
2022-11-20T16:58:56.899Z,7.77
2022-11-20T17:01:25.102Z,7.70
2022-11-20T17:04:02.635Z,7.59
2022-11-20T17:06:31.720Z,7.49
2022-11-20T17:08:59.028Z,7.47
2022-11-20T17:11:26.418Z,7.55
2022-11-20T17:13:55.370Z,7.51
2022-11-20T17:16:23.813Z,7.38
2022-11-20T17:18:50.814Z,7.37
2022-11-20T17:21:18.999Z,7.47
2022-11-20T17:23:46.801Z,7.47
2022-11-20T17:26:22.370Z,7.44
2022-11-20T17:28:59.872Z,7.46
2022-11-20T17:31:27.440Z,7.31
2022-11-20T17:33:53.938Z,7.23
2022-11-20T17:36:21.105Z,7.17
2022-11-20T17:38:47.700Z,7.19
2022-11-20T17:41:19.719Z,7.10
2022-11-20T17:43:46.550Z,6.99
2022-11-20T17:46:14.504Z,6.90
2022-11-20T17:48:44.692Z,6.91
2022-11-20T17:51:20.193Z,6.96
2022-11-20T17:53:51.557Z,6.98
2022-11-20T17:56:37.199Z,7.03
2022-11-20T17:59:08.088Z,7.01
2022-11-20T18:01:35.455Z,6.99
2022-11-20T18:04:02.782Z,6.99
2022-11-20T18:06:31.111Z,7.01
2022-11-20T18:09:02.565Z,6.92
2022-11-20T18:11:30.314Z,6.84
2022-11-20T18:14:17.959Z,6.89
2022-11-20T18:16:47.027Z,6.91
2022-11-20T18:19:16.961Z,6.85
2022-11-20T18:21:43.774Z,6.77
2022-11-20T18:24:10.508Z,6.68
2022-11-20T18:26:42.762Z,6.58
2022-11-20T18:29:11.444Z,6.51
2022-11-20T18:31:38.007Z,6.55
2022-11-20T18:34:04.934Z,6.48
2022-11-20T18:36:32.574Z,6.46
2022-11-20T18:39:01.579Z,6.53
2022-11-20T18:41:48.923Z,6.49
2022-11-20T18:44:37.080Z,6.47
2022-11-20T18:47:08.344Z,6.42
2022-11-20T18:49:40.528Z,6.30
2022-11-20T18:52:07.239Z,6.15
2022-11-20T18:54:36.110Z,6.22
2022-11-20T18:57:02.977Z,6.18
2022-11-20T18:59:29.606Z,6.11
2022-11-20T19:01:56.298Z,6.05
2022-11-20T19:04:23.281Z,6.01
2022-11-20T19:06:49.911Z,6.08
2022-11-20T19:09:16.691Z,6.16
2022-11-20T19:11:43.119Z,6.13
2022-11-20T19:14:09.662Z,6.02
2022-11-20T19:16:36.607Z,5.95
2022-11-20T19:19:05.428Z,5.87
2022-11-20T19:21:31.905Z,5.83
2022-11-20T19:24:00.055Z,5.89
2022-11-20T19:26:26.916Z,5.94
2022-11-20T19:28:53.931Z,5.96
2022-11-20T19:31:24.611Z,5.92
2022-11-20T19:34:03.210Z,5.84
2022-11-20T19:36:35.241Z,5.84
2022-11-20T19:39:05.451Z,5.85
2022-11-20T19:41:33.709Z,5.82
2022-11-20T19:44:05.839Z,5.74
2022-11-20T19:46:34.146Z,5.73
2022-11-20T19:49:00.692Z,5.77
2022-11-20T19:51:33.785Z,5.77
2022-11-20T19:54:01.117Z,5.74
2022-11-20T19:56:29.243Z,5.73
2022-11-20T19:58:57.039Z,5.70
2022-11-20T20:01:26.733Z,5.75
2022-11-20T20:03:53.937Z,5.74
2022-11-20T20:06:23.132Z,5.56
2022-11-20T20:09:07.672Z,5.51
2022-11-20T20:11:35.411Z,5.45
2022-11-20T20:14:03.377Z,5.43
2022-11-20T20:16:29.977Z,5.44
2022-11-20T20:19:01.730Z,5.47
2022-11-20T20:21:30.485Z,5.55
2022-11-20T20:23:58.502Z,5.53
2022-11-20T20:26:26.940Z,5.49
2022-11-20T20:28:53.491Z,5.49
2022-11-20T20:31:25.087Z,5.32
2022-11-20T20:33:52.014Z,5.21
2022-11-20T20:36:20.226Z,5.18
2022-11-20T20:38:47.231Z,5.06
2022-11-20T20:41:14.685Z,5.00
2022-11-20T20:44:00.109Z,5.01
2022-11-20T20:46:26.649Z,4.81
2022-11-20T20:48:54.814Z,4.77
2022-11-20T20:51:21.897Z,4.92
2022-11-20T20:53:48.528Z,4.94
2022-11-20T20:56:15.146Z,5.02
2022-11-20T20:58:41.661Z,4.78
2022-11-20T21:01:11.016Z,4.74
2022-11-20T21:03:37.564Z,4.65
2022-11-20T21:06:05.223Z,4.64
2022-11-20T21:08:31.769Z,4.64
2022-11-20T21:11:01.685Z,4.59
2022-11-20T21:13:29.023Z,4.47
2022-11-20T21:15:55.678Z,4.39
2022-11-20T21:18:23.664Z,4.40
2022-11-20T21:21:09.258Z,4.39
2022-11-20T21:23:36.902Z,4.37
2022-11-20T21:26:06.241Z,4.35
2022-11-20T21:28:34.160Z,4.31
2022-11-20T21:31:13.019Z,4.28
2022-11-20T21:33:39.481Z,4.31
2022-11-20T21:36:07.349Z,4.39
2022-11-20T21:38:34.991Z,4.56
2022-11-20T21:41:01.876Z,4.51
2022-11-20T21:43:28.643Z,4.48
2022-11-20T21:46:01.371Z,4.46
2022-11-20T21:48:30.108Z,4.32
2022-11-20T21:50:56.685Z,4.24
2022-11-20T21:53:23.135Z,4.44
2022-11-20T21:55:56.404Z,4.39
2022-11-20T21:58:23.189Z,4.38
2022-11-20T22:00:49.997Z,4.47
2022-11-20T22:03:16.770Z,4.56
2022-11-20T22:05:43.207Z,4.52
2022-11-20T22:08:09.730Z,4.54
2022-11-20T22:10:36.182Z,4.65
2022-11-20T22:13:20.873Z,4.70
2022-11-20T22:16:00.469Z,4.69
2022-11-20T22:18:27.545Z,4.72
2022-11-20T22:20:54.047Z,4.77
2022-11-20T22:23:20.451Z,4.91
2022-11-20T22:25:46.865Z,4.99
2022-11-20T22:28:13.357Z,5.03
2022-11-20T22:30:39.774Z,5.07
2022-11-20T22:33:11.920Z,5.07
2022-11-20T22:35:39.855Z,5.05
2022-11-20T22:38:07.641Z,5.14
2022-11-20T22:40:34.088Z,5.16
2022-11-20T22:43:00.514Z,5.12
2022-11-20T22:45:26.938Z,5.19
2022-11-20T22:47:53.402Z,5.26
2022-11-20T22:50:19.817Z,5.21
2022-11-20T22:52:46.258Z,5.16
2022-11-20T22:55:16.282Z,5.22
2022-11-20T22:57:42.983Z,5.28
2022-11-20T23:00:09.987Z,5.37
2022-11-20T23:02:36.481Z,5.37
2022-11-20T23:05:04.234Z,5.33
2022-11-20T23:07:35.936Z,5.35
2022-11-20T23:10:06.562Z,5.35
2022-11-20T23:12:32.988Z,5.40
2022-11-20T23:14:59.400Z,5.34
2022-11-20T23:17:25.827Z,5.26
2022-11-20T23:19:52.281Z,5.18
2022-11-20T23:22:18.712Z,5.12
2022-11-20T23:24:45.140Z,5.13
2022-11-20T23:27:11.587Z,5.19
2022-11-20T23:29:38.017Z,5.20
2022-11-20T23:32:04.456Z,5.14
2022-11-20T23:34:30.896Z,5.04
2022-11-20T23:36:57.309Z,4.99
2022-11-20T23:39:23.749Z,4.96
2022-11-20T23:41:50.253Z,5.01
2022-11-20T23:44:16.698Z,4.92
2022-11-20T23:46:43.121Z,4.82
2022-11-20T23:49:09.676Z,4.81
2022-11-20T23:51:36.187Z,4.77
2022-11-20T23:54:04.889Z,4.60
2022-11-20T23:56:31.631Z,4.49
2022-11-20T23:58:58.213Z,4.50
